sensor_id;sensor_type;location;lat;lon;timestamp;pressure;altitude;pressure_sealevel;temperature;humidity
9261;BME280;4667;42.726;23.252;2023-04-19T00:00:10;94832.97;;;10.93;nan
9261;BME280;4667;42.726;23.252;2023-04-19T00:02:37;94832.91;;;11.00;nan
9261;BME280;4667;42.726;23.252;2023-04-19T00:05:06;94825.13;;;11.05;nan
9261;BME280;4667;42.726;23.252;2023-04-19T00:07:33;94822.38;;;11.09;nan
9261;BME280;4667;42.726;23.252;2023-04-19T00:09:59;94821.22;;;11.10;nan
9261;BME280;4667;42.726;23.252;2023-04-19T00:12:26;94815.78;;;11.14;nan
9261;BME280;4667;42.726;23.252;2023-04-19T00:14:53;94818.94;;;11.05;nan
9261;BME280;4667;42.726;23.252;2023-04-19T00:17:19;94823.97;;;11.07;nan
9261;BME280;4667;42.726;23.252;2023-04-19T00:19:47;94817.31;;;11.15;nan
9261;BME280;4667;42.726;23.252;2023-04-19T00:22:15;94820.16;;;11.00;nan
9261;BME280;4667;42.726;23.252;2023-04-19T00:24:42;94819.28;;;11.11;nan
9261;BME280;4667;42.726;23.252;2023-04-19T00:27:09;94813.13;;;11.07;nan
9261;BME280;4667;42.726;23.252;2023-04-19T00:29:35;94811.97;;;11.04;nan
9261;BME280;4667;42.726;23.252;2023-04-19T00:32:02;94815.13;;;10.99;nan
9261;BME280;4667;42.726;23.252;2023-04-19T00:34:30;94804.22;;;11.06;nan
9261;BME280;4667;42.726;23.252;2023-04-19T00:36:57;94810.44;;;11.03;nan
9261;BME280;4667;42.726;23.252;2023-04-19T00:39:25;94817.97;;;10.81;nan
9261;BME280;4667;42.726;23.252;2023-04-19T00:41:51;94810.69;;;10.68;nan
9261;BME280;4667;42.726;23.252;2023-04-19T00:44:18;94817.19;;;10.84;nan
9261;BME280;4667;42.726;23.252;2023-04-19T00:46:45;94813.41;;;10.68;nan
9261;BME280;4667;42.726;23.252;2023-04-19T00:49:12;94808.09;;;10.53;nan
9261;BME280;4667;42.726;23.252;2023-04-19T00:51:38;94808.81;;;10.57;nan
9261;BME280;4667;42.726;23.252;2023-04-19T00:54:06;94814.25;;;10.57;nan
9261;BME280;4667;42.726;23.252;2023-04-19T00:56:35;94808.53;;;10.41;nan
9261;BME280;4667;42.726;23.252;2023-04-19T00:59:01;94809.78;;;10.26;nan
9261;BME280;4667;42.726;23.252;2023-04-19T01:01:28;94807.75;;;10.48;nan
9261;BME280;4667;42.726;23.252;2023-04-19T01:03:55;94805.03;;;10.44;nan
9261;BME280;4667;42.726;23.252;2023-04-19T01:06:22;94804.31;;;10.33;nan
9261;BME280;4667;42.726;23.252;2023-04-19T01:08:49;94800.00;;;10.43;nan
9261;BME280;4667;42.726;23.252;2023-04-19T01:11:15;94800.84;;;10.36;nan
9261;BME280;4667;42.726;23.252;2023-04-19T01:13:44;94798.41;;;10.49;nan
9261;BME280;4667;42.726;23.252;2023-04-19T01:16:10;94798.81;;;10.51;nan
9261;BME280;4667;42.726;23.252;2023-04-19T01:18:37;94799.66;;;10.41;nan
9261;BME280;4667;42.726;23.252;2023-04-19T01:21:06;94798.03;;;10.54;nan
9261;BME280;4667;42.726;23.252;2023-04-19T01:23:34;94792.66;;;10.47;nan
9261;BME280;4667;42.726;23.252;2023-04-19T01:26:03;94792.19;;;10.55;nan
9261;BME280;4667;42.726;23.252;2023-04-19T01:28:30;94792.72;;;10.36;nan
9261;BME280;4667;42.726;23.252;2023-04-19T01:30:57;94798.94;;;10.26;nan
9261;BME280;4667;42.726;23.252;2023-04-19T01:33:24;94798.09;;;10.40;nan
9261;BME280;4667;42.726;23.252;2023-04-19T01:35:51;94783.47;;;10.30;nan
9261;BME280;4667;42.726;23.252;2023-04-19T01:38:17;94789.97;;;10.40;nan
9261;BME280;4667;42.726;23.252;2023-04-19T01:40:46;94783.50;;;10.16;nan
9261;BME280;4667;42.726;23.252;2023-04-19T01:43:15;94789.31;;;10.14;nan
9261;BME280;4667;42.726;23.252;2023-04-19T01:45:42;94798.13;;;10.33;nan
9261;BME280;4667;42.726;23.252;2023-04-19T01:48:09;94795.78;;;10.38;nan
9261;BME280;4667;42.726;23.252;2023-04-19T01:50:36;94784.94;;;10.38;nan
9261;BME280;4667;42.726;23.252;2023-04-19T01:53:04;94788.16;;;10.19;nan
9261;BME280;4667;42.726;23.252;2023-04-19T01:55:30;94789.31;;;10.14;nan
9261;BME280;4667;42.726;23.252;2023-04-19T01:57:58;94790.41;;;10.35;nan
9261;BME280;4667;42.726;23.252;2023-04-19T02:00:25;94793.16;;;10.20;nan
9261;BME280;4667;42.726;23.252;2023-04-19T02:02:52;94793.53;;;10.26;nan
9261;BME280;4667;42.726;23.252;2023-04-19T02:05:18;94791.97;;;10.25;nan
9261;BME280;4667;42.726;23.252;2023-04-19T02:07:45;94795.06;;;10.27;nan
9261;BME280;4667;42.726;23.252;2023-04-19T02:10:12;94785.81;;;10.21;nan
9261;BME280;4667;42.726;23.252;2023-04-19T02:12:39;94788.91;;;10.16;nan
9261;BME280;4667;42.726;23.252;2023-04-19T02:15:08;94787.78;;;10.17;nan
9261;BME280;4667;42.726;23.252;2023-04-19T02:17:35;94789.72;;;10.09;nan
9261;BME280;4667;42.726;23.252;2023-04-19T02:20:03;94793.63;;;10.05;nan
9261;BME280;4667;42.726;23.252;2023-04-19T02:22:32;94787.41;;;10.08;nan
9261;BME280;4667;42.726;23.252;2023-04-19T02:24:59;94787.38;;;10.15;nan
9261;BME280;4667;42.726;23.252;2023-04-19T02:27:26;94789.69;;;10.13;nan
9261;BME280;4667;42.726;23.252;2023-04-19T02:29:53;94788.28;;;9.87;nan
9261;BME280;4667;42.726;23.252;2023-04-19T02:32:22;94780.28;;;9.59;nan
9261;BME280;4667;42.726;23.252;2023-04-19T02:34:48;94786.41;;;9.66;nan
